createdAt,value
2022-12-31T00:01:41.766Z,97500.56
2022-12-31T00:04:09.874Z,97499.69
2022-12-31T00:06:38.089Z,97499.69
2022-12-31T00:09:08.107Z,97521.16
2022-12-31T00:11:36.479Z,97523.81
2022-12-31T00:14:04.617Z,97521.25
2022-12-31T00:16:33.743Z,97520.38
2022-12-31T00:19:01.947Z,97517.69
2022-12-31T00:21:30.841Z,97525.81
2022-12-31T00:23:59.111Z,97529.44
2022-12-31T00:26:29.574Z,97534.81
2022-12-31T00:28:58.064Z,97527.72
2022-12-31T00:31:26.856Z,97527.72
2022-12-31T00:33:55.028Z,97529.63
2022-12-31T00:36:24.261Z,97530.56
2022-12-31T00:38:52.997Z,97520.81
2022-12-31T00:41:21.391Z,97519.94
2022-12-31T00:43:51.011Z,97515.56
2022-12-31T00:46:19.305Z,97517.28
2022-12-31T00:48:47.576Z,97509.22
2022-12-31T00:51:16.954Z,97506.63
2022-12-31T00:53:45.169Z,97512.88
2022-12-31T00:56:15.475Z,97520.97
2022-12-31T00:58:43.686Z,97519.16
2022-12-31T01:01:13.870Z,97517.47
2022-12-31T01:03:42.080Z,97513.91
2022-12-31T01:06:10.220Z,97521.94
2022-12-31T01:08:38.307Z,97530.91
2022-12-31T01:11:22.656Z,97547.97
2022-12-31T01:13:52.363Z,97555.13
2022-12-31T01:16:23.389Z,97549.88
2022-12-31T01:18:51.627Z,97561.47
2022-12-31T01:21:20.017Z,97558.78
2022-12-31T01:23:48.157Z,97565.09
2022-12-31T01:26:16.752Z,97555.34
2022-12-31T01:28:44.954Z,97549.97
2022-12-31T01:31:14.468Z,97550.91
2022-12-31T01:33:44.534Z,97543.84
2022-12-31T01:36:13.768Z,97547.44
2022-12-31T01:38:41.877Z,97554.63
2022-12-31T01:41:12.228Z,97551.09
2022-12-31T01:43:48.715Z,97553.78
2022-12-31T01:46:21.971Z,97562.75
2022-12-31T01:48:52.586Z,97554.63
2022-12-31T01:51:20.902Z,97575.28
2022-12-31T01:53:49.032Z,97572.59
2022-12-31T01:56:17.143Z,97588.69
2022-12-31T01:58:45.768Z,97584.28
2022-12-31T02:01:14.866Z,97586.00
2022-12-31T02:03:43.079Z,97580.72
2022-12-31T02:06:16.081Z,97572.69
2022-12-31T02:08:44.220Z,97580.72
2022-12-31T02:11:23.566Z,97578.94
2022-12-31T02:13:56.606Z,97584.28
2022-12-31T02:16:31.429Z,97581.69
2022-12-31T02:19:01.048Z,97586.19
2022-12-31T02:21:57.163Z,97581.69
2022-12-31T02:24:38.312Z,97579.94
2022-12-31T02:27:08.479Z,97588.88
2022-12-31T02:30:01.821Z,97590.66
2022-12-31T02:32:34.358Z,97589.78
2022-12-31T02:35:04.563Z,97596.13
2022-12-31T02:37:32.693Z,97591.63
2022-12-31T02:40:00.986Z,97595.25
2022-12-31T02:42:29.051Z,97588.19
2022-12-31T02:44:57.171Z,97602.41
2022-12-31T02:47:42.152Z,97619.38
2022-12-31T02:50:19.760Z,97599.81
2022-12-31T02:52:52.274Z,97606.06
2022-12-31T02:55:23.074Z,97592.75
2022-12-31T02:57:54.555Z,97602.59
2022-12-31T03:00:40.265Z,97594.56
2022-12-31T03:03:09.907Z,97602.59
2022-12-31T03:05:39.900Z,97599.91
2022-12-31T03:08:08.085Z,97601.72
2022-12-31T03:10:36.179Z,97597.34
2022-12-31T03:13:03.393Z,97612.53
2022-12-31T03:15:32.819Z,97609.84
2022-12-31T03:18:01.884Z,97606.22
2022-12-31T03:21:02.057Z,97602.69
2022-12-31T03:23:31.492Z,97608.13
2022-12-31T03:25:58.877Z,97613.53
2022-12-31T03:28:28.146Z,97615.34
2022-12-31T03:30:57.158Z,97625.16
2022-12-31T03:33:25.490Z,97609.13
2022-12-31T03:35:55.006Z,97613.63
2022-12-31T03:38:23.086Z,97606.50
2022-12-31T03:40:52.062Z,97608.34
2022-12-31T03:43:20.430Z,97606.50
2022-12-31T03:45:49.692Z,97611.88
2022-12-31T03:48:17.760Z,97619.91
2022-12-31T03:50:45.980Z,97621.75
2022-12-31T03:53:15.475Z,97632.47
2022-12-31T03:55:43.646Z,97650.34
2022-12-31T03:58:11.764Z,97660.19
2022-12-31T04:00:39.860Z,97654.84
2022-12-31T04:03:08.031Z,97667.34
2022-12-31T04:05:36.107Z,97668.22
2022-12-31T04:08:04.243Z,97663.84
2022-12-31T04:10:33.702Z,97668.31
2022-12-31T04:13:04.827Z,97671.00
2022-12-31T04:15:33.060Z,97677.38
2022-12-31T04:18:01.097Z,97666.66
2022-12-31T04:20:29.169Z,97670.22
2022-12-31T04:22:57.282Z,97680.06
2022-12-31T04:25:25.375Z,97697.09
2022-12-31T04:27:54.847Z,97706.84
2022-12-31T04:30:22.968Z,97714.88
2022-12-31T04:32:51.000Z,97706.94
2022-12-31T04:35:19.272Z,97710.50
2022-12-31T04:37:47.369Z,97716.78
2022-12-31T04:40:15.559Z,97724.81
2022-12-31T04:42:43.688Z,97728.38
2022-12-31T04:45:13.349Z,97735.53
2022-12-31T04:47:41.486Z,97741.84
2022-12-31T04:50:09.835Z,97731.13
2022-12-31T04:52:42.678Z,97730.34
2022-12-31T04:55:11.408Z,97729.38
2022-12-31T04:57:39.561Z,97742.78
2022-12-31T05:00:09.071Z,97735.72
2022-12-31T05:02:38.720Z,97740.09
2022-12-31T05:05:07.730Z,97747.28
2022-12-31T05:07:37.104Z,97744.59
2022-12-31T05:10:06.180Z,97749.94
2022-12-31T05:12:34.260Z,97758.94
2022-12-31T05:15:02.373Z,97770.44
2022-12-31T05:17:30.511Z,97772.34
2022-12-31T05:20:00.004Z,97777.69
2022-12-31T05:22:30.741Z,97778.72
2022-12-31T05:24:59.081Z,97776.03
2022-12-31T05:27:27.419Z,97774.16
2022-12-31T05:29:55.580Z,97771.47
2022-12-31T05:32:23.639Z,97773.34
2022-12-31T05:34:52.001Z,97777.00
2022-12-31T05:37:21.431Z,97779.69
2022-12-31T05:39:49.569Z,97789.50
2022-12-31T05:42:17.638Z,97778.81
2022-12-31T05:44:45.738Z,97779.69
2022-12-31T05:47:13.982Z,97759.19
2022-12-31T05:49:42.113Z,97760.97
2022-12-31T05:52:10.235Z,97754.69
2022-12-31T05:54:39.683Z,97757.38
2022-12-31T05:57:07.997Z,97764.63
2022-12-31T05:59:36.084Z,97757.50
2022-12-31T06:02:04.187Z,97745.97
2022-12-31T06:04:32.367Z,97762.88
2022-12-31T06:07:00.431Z,97761.06
2022-12-31T06:09:28.573Z,97769.09
2022-12-31T06:11:58.066Z,97781.63
2022-12-31T06:14:26.230Z,97789.66
2022-12-31T06:16:54.297Z,97772.75
2022-12-31T06:19:22.360Z,97778.88
2022-12-31T06:21:50.469Z,97780.69
2022-12-31T06:24:18.708Z,97786.03
2022-12-31T06:26:46.919Z,97794.09
2022-12-31T06:29:16.478Z,97798.47
2022-12-31T06:31:44.625Z,97797.63
2022-12-31T06:34:13.660Z,97803.84
2022-12-31T06:36:41.753Z,97806.50
2022-12-31T06:39:09.932Z,97807.38
2022-12-31T06:41:37.961Z,97802.91
2022-12-31T06:44:06.498Z,97797.56
2022-12-31T06:46:36.026Z,97816.22
2022-12-31T06:49:04.288Z,97826.00
2022-12-31T06:51:32.432Z,97833.06
2022-12-31T06:54:00.599Z,97836.63
2022-12-31T06:56:34.353Z,97837.50
2022-12-31T06:59:03.307Z,97849.00
2022-12-31T07:01:50.647Z,97842.69
2022-12-31T07:04:30.856Z,97851.53
2022-12-31T07:07:00.774Z,97847.03
2022-12-31T07:09:32.041Z,97853.19
2022-12-31T07:12:04.072Z,97845.06
2022-12-31T07:14:34.582Z,97859.25
2022-12-31T07:17:08.027Z,97861.00
2022-12-31T07:19:43.970Z,97852.00
2022-12-31T07:22:14.696Z,97849.31
2022-12-31T07:24:43.372Z,97852.91
2022-12-31T07:27:26.031Z,97865.28
2022-12-31T07:30:02.655Z,97867.88
2022-12-31T07:32:39.011Z,97870.56
2022-12-31T07:35:11.343Z,97869.53
2022-12-31T07:37:42.459Z,97886.47
2022-12-31T07:40:13.364Z,97892.72
2022-12-31T07:42:44.703Z,97900.81
2022-12-31T07:45:15.747Z,97895.47
2022-12-31T07:47:45.952Z,97902.53
2022-12-31T07:50:16.728Z,97906.09
2022-12-31T07:52:45.461Z,97904.31
2022-12-31T07:55:13.663Z,97910.53
2022-12-31T07:57:43.731Z,97915.91
2022-12-31T08:00:14.039Z,97908.66
2022-12-31T08:03:05.002Z,97916.75
2022-12-31T08:05:34.327Z,97917.63
2022-12-31T08:08:07.300Z,97910.44
2022-12-31T08:10:39.053Z,97905.88
2022-12-31T08:13:10.807Z,97894.28
2022-12-31T08:15:39.380Z,97882.69
2022-12-31T08:18:09.748Z,97879.06
2022-12-31T08:20:40.524Z,97888.00
2022-12-31T08:23:23.243Z,97901.41
2022-12-31T08:26:01.915Z,97916.50
2022-12-31T08:28:47.946Z,97929.81
2022-12-31T08:31:17.688Z,97923.63
2022-12-31T08:33:49.992Z,97932.47
2022-12-31T08:36:20.254Z,97935.13
2022-12-31T08:38:51.391Z,97950.25
2022-12-31T08:41:23.493Z,97947.56
2022-12-31T08:43:56.873Z,97938.59
2022-12-31T08:46:29.426Z,97947.50
2022-12-31T08:48:59.684Z,97951.03
2022-12-31T08:51:28.263Z,97953.66
2022-12-31T08:53:56.902Z,97956.28
2022-12-31T08:56:30.783Z,97962.44
2022-12-31T08:59:06.240Z,97959.56
2022-12-31T09:01:39.305Z,97967.53
2022-12-31T09:04:13.246Z,97964.84
2022-12-31T09:06:43.171Z,97966.50
2022-12-31T09:09:13.611Z,97970.00
2022-12-31T09:11:49.781Z,97967.38
2022-12-31T09:14:23.155Z,97970.06
2022-12-31T09:16:56.020Z,97968.25
2022-12-31T09:19:25.543Z,97965.50
2022-12-31T09:21:54.171Z,97971.75
2022-12-31T09:24:23.219Z,97961.00
2022-12-31T09:26:57.283Z,97955.66
2022-12-31T09:29:33.053Z,97962.72
2022-12-31T09:32:07.232Z,97958.34
2022-12-31T09:34:38.652Z,97952.88
2022-12-31T09:37:11.298Z,97959.13
2022-12-31T09:39:41.865Z,97960.84
2022-12-31T09:42:37.215Z,97959.97
2022-12-31T09:45:29.785Z,97956.34
2022-12-31T09:48:29.731Z,97956.34
2022-12-31T09:51:06.467Z,97958.06
2022-12-31T09:53:47.563Z,97958.94
2022-12-31T09:56:18.883Z,97965.19
2022-12-31T09:58:50.372Z,97962.59
2022-12-31T10:01:24.931Z,97956.34
2022-12-31T10:04:17.319Z,97961.72
2022-12-31T10:06:49.208Z,97967.00
2022-12-31T10:09:31.314Z,97970.47
2022-12-31T10:12:06.430Z,97970.38
2022-12-31T10:14:47.528Z,97958.63
2022-12-31T10:17:23.061Z,97951.38
2022-12-31T10:20:20.821Z,97946.81
2022-12-31T10:23:34.854Z,97947.50
2022-12-31T10:26:35.364Z,97950.97
2022-12-31T10:29:14.118Z,97950.03
2022-12-31T10:31:50.185Z,97943.66
2022-12-31T10:34:21.397Z,97948.16
2022-12-31T10:36:56.932Z,97950.75
2022-12-31T10:39:51.057Z,97950.75
2022-12-31T10:42:47.891Z,97948.94
2022-12-31T10:45:41.955Z,97937.09
2022-12-31T10:48:47.822Z,97944.75
2022-12-31T10:51:49.187Z,97937.41
2022-12-31T10:54:54.452Z,97924.16
2022-12-31T10:58:02.021Z,97917.13
2022-12-31T11:00:32.372Z,97919.03
2022-12-31T11:03:33.702Z,97920.84
2022-12-31T11:06:27.344Z,97917.31
2022-12-31T11:09:15.520Z,97914.63
2022-12-31T11:11:46.501Z,97912.88
2022-12-31T11:14:30.160Z,97909.25
2022-12-31T11:17:05.091Z,97899.38
2022-12-31T11:19:35.572Z,97906.56
2022-12-31T11:22:30.656Z,97898.53
2022-12-31T11:25:08.943Z,97890.41
2022-12-31T11:27:51.278Z,97875.22
2022-12-31T11:30:22.719Z,97880.53
2022-12-31T11:33:10.330Z,97876.97
2022-12-31T11:35:48.584Z,97876.91
2022-12-31T11:38:19.758Z,97879.56
2022-12-31T11:40:54.376Z,97874.22
2022-12-31T11:43:30.807Z,97867.03
2022-12-31T11:46:28.071Z,97866.94
2022-12-31T11:49:21.283Z,97860.72
2022-12-31T11:52:07.957Z,97864.16
2022-12-31T11:55:14.952Z,97866.84
2022-12-31T11:57:43.287Z,97857.09
2022-12-31T12:00:19.054Z,97849.97
2022-12-31T12:02:47.939Z,97859.78
2022-12-31T12:05:17.162Z,97859.78
2022-12-31T12:07:45.278Z,97848.16
2022-12-31T12:10:23.161Z,97854.31
2022-12-31T12:12:51.320Z,97853.44
2022-12-31T12:15:23.076Z,97856.91
2022-12-31T12:17:53.006Z,97854.22
2022-12-31T12:20:22.875Z,97848.81
2022-12-31T12:22:51.243Z,97848.81
2022-12-31T12:25:20.916Z,97840.75
2022-12-31T12:27:48.995Z,97837.19
2022-12-31T12:30:22.533Z,97832.75
2022-12-31T12:32:54.899Z,97830.97
2022-12-31T12:35:27.256Z,97832.75
2022-12-31T12:38:02.908Z,97824.91
2022-12-31T12:40:34.058Z,97829.47
2022-12-31T12:43:02.735Z,97836.56
2022-12-31T12:45:39.340Z,97845.41
2022-12-31T12:48:10.204Z,97851.63
2022-12-31T12:50:40.708Z,97852.50
2022-12-31T12:53:21.362Z,97854.16
2022-12-31T12:55:55.550Z,97843.34
2022-12-31T12:58:33.885Z,97856.59
2022-12-31T13:01:05.297Z,97851.19
2022-12-31T13:04:07.707Z,97851.19
2022-12-31T13:06:38.195Z,97854.66
2022-12-31T13:09:14.837Z,97857.25
2022-12-31T13:11:47.324Z,97851.00
2022-12-31T13:14:20.089Z,97847.38
2022-12-31T13:16:52.949Z,97852.66
2022-12-31T13:19:22.777Z,97844.63
2022-12-31T13:21:53.802Z,97850.81
2022-12-31T13:24:36.170Z,97850.75
2022-12-31T13:27:07.505Z,97848.06
2022-12-31T13:29:36.094Z,97855.06
2022-12-31T13:32:06.672Z,97849.78
2022-12-31T13:34:36.253Z,97858.72
2022-12-31T13:37:06.448Z,97856.97
2022-12-31T13:39:37.660Z,97866.78
2022-12-31T13:42:09.036Z,97869.44
2022-12-31T13:44:38.363Z,97874.81
2022-12-31T13:47:12.829Z,97875.75
2022-12-31T13:49:44.427Z,97876.63
2022-12-31T13:52:19.964Z,97880.19
2022-12-31T13:54:54.489Z,97871.13
2022-12-31T13:57:37.896Z,97870.00
2022-12-31T14:00:07.640Z,97873.38
2022-12-31T14:02:43.453Z,97873.19
2022-12-31T14:05:15.916Z,97876.66
2022-12-31T14:07:47.478Z,97866.69
2022-12-31T14:10:15.801Z,97865.75
2022-12-31T14:12:47.417Z,97877.38
2022-12-31T14:15:17.544Z,97879.88
2022-12-31T14:17:49.258Z,97871.66
2022-12-31T14:20:22.028Z,97868.88
2022-12-31T14:22:51.878Z,97871.47
2022-12-31T14:25:22.978Z,97872.34
2022-12-31T14:27:51.892Z,97872.34
2022-12-31T14:30:21.515Z,97868.63
2022-12-31T14:33:28.333Z,97858.75
2022-12-31T14:36:11.802Z,97869.47
2022-12-31T14:38:54.158Z,97882.91
2022-12-31T14:41:34.727Z,97890.03
2022-12-31T14:44:08.430Z,97895.41
2022-12-31T14:46:39.724Z,97902.41
2022-12-31T14:49:17.334Z,97901.34
2022-12-31T14:51:45.438Z,97905.69
2022-12-31T14:54:29.074Z,97915.50
2022-12-31T14:56:57.385Z,97911.94
2022-12-31T14:59:27.268Z,97908.38
2022-12-31T15:01:55.761Z,97912.88
2022-12-31T15:04:33.555Z,97910.97
2022-12-31T15:07:07.384Z,97912.81
2022-12-31T15:10:00.964Z,97907.44
2022-12-31T15:12:40.099Z,97912.72
2022-12-31T15:15:16.337Z,97919.03
2022-12-31T15:17:49.863Z,97917.13
2022-12-31T15:20:28.304Z,97922.50
2022-12-31T15:22:56.618Z,97915.31
2022-12-31T15:25:33.910Z,97913.50
2022-12-31T15:28:05.847Z,97923.38
2022-12-31T15:30:38.883Z,97935.16
2022-12-31T15:33:09.011Z,97933.53
2022-12-31T15:35:49.388Z,97926.59
2022-12-31T15:38:34.877Z,97944.50
2022-12-31T15:41:13.378Z,97941.91
2022-12-31T15:43:41.931Z,97954.63
2022-12-31T15:46:13.059Z,97957.38
2022-12-31T15:48:43.284Z,97948.66
2022-12-31T15:51:17.203Z,97966.66
2022-12-31T15:53:47.033Z,97952.34
2022-12-31T15:56:18.631Z,97963.19
2022-12-31T15:58:47.277Z,97956.16
2022-12-31T16:01:16.995Z,97967.84
2022-12-31T16:03:46.206Z,97961.59
2022-12-31T16:06:16.675Z,97966.19
2022-12-31T16:08:45.941Z,97960.81
2022-12-31T16:11:14.150Z,97968.88
2022-12-31T16:13:43.395Z,97952.91
2022-12-31T16:16:21.195Z,97952.91
2022-12-31T16:18:50.630Z,97941.25
2022-12-31T16:21:32.581Z,97940.56
2022-12-31T16:24:02.383Z,97949.44
2022-12-31T16:26:32.880Z,97945.03
2022-12-31T16:29:01.165Z,97935.25
2022-12-31T16:31:29.673Z,97935.34
2022-12-31T16:34:07.319Z,97953.25
2022-12-31T16:36:36.841Z,97960.38
2022-12-31T16:39:25.875Z,97955.09
2022-12-31T16:41:54.538Z,97955.09
2022-12-31T16:44:26.324Z,97964.06
2022-12-31T16:46:56.437Z,97965.88
2022-12-31T16:49:24.848Z,97969.44
2022-12-31T16:51:55.159Z,97965.88
2022-12-31T16:54:27.195Z,97965.97
2022-12-31T16:56:55.261Z,97965.97
2022-12-31T16:59:31.834Z,97962.41
2022-12-31T17:02:03.217Z,97965.97
2022-12-31T17:04:31.498Z,97968.75
2022-12-31T17:07:28.410Z,97966.06
2022-12-31T17:10:03.407Z,97977.72
2022-12-31T17:12:52.663Z,97973.22
2022-12-31T17:15:23.005Z,97972.34
2022-12-31T17:17:52.974Z,97984.06
2022-12-31T17:20:24.129Z,97992.97
2022-12-31T17:22:54.487Z,97993.03
2022-12-31T17:25:24.221Z,97994.88
2022-12-31T17:27:57.347Z,97986.84
2022-12-31T17:30:39.857Z,97990.34
2022-12-31T17:33:29.918Z,97998.50
2022-12-31T17:35:59.111Z,97994.09
2022-12-31T17:38:33.119Z,98002.16
2022-12-31T17:41:16.858Z,97996.78
2022-12-31T17:43:44.941Z,97996.78
2022-12-31T17:46:14.058Z,97993.31
2022-12-31T17:48:42.282Z,97997.78
2022-12-31T17:51:10.604Z,97996.00
2022-12-31T17:53:40.096Z,97994.19
2022-12-31T17:56:14.350Z,97994.19
2022-12-31T17:58:44.542Z,97996.00
2022-12-31T18:01:13.783Z,97991.56
2022-12-31T18:03:41.998Z,97990.72
2022-12-31T18:06:16.121Z,97987.06
2022-12-31T18:08:46.304Z,97987.06
2022-12-31T18:11:16.897Z,97990.72
2022-12-31T18:13:45.009Z,97994.25
2022-12-31T18:16:13.199Z,98005.84
2022-12-31T18:18:42.345Z,98006.81
2022-12-31T18:21:15.141Z,98007.66
2022-12-31T18:23:46.224Z,98013.91
2022-12-31T18:26:16.022Z,98018.47
2022-12-31T18:28:44.200Z,98013.97
2022-12-31T18:31:14.852Z,98012.19
2022-12-31T18:33:42.974Z,98010.44
2022-12-31T18:36:12.883Z,98006.88
2022-12-31T18:38:41.275Z,98005.06
2022-12-31T18:41:09.719Z,98004.19
2022-12-31T18:43:39.203Z,98004.19
2022-12-31T18:46:07.301Z,97996.22
2022-12-31T18:48:35.573Z,97994.31
2022-12-31T18:51:03.720Z,97992.59
2022-12-31T18:53:31.759Z,97989.91
2022-12-31T18:55:59.897Z,97996.22
2022-12-31T18:58:27.986Z,98003.41
2022-12-31T19:00:57.796Z,98009.63
2022-12-31T19:03:27.515Z,98005.19
2022-12-31T19:05:55.775Z,97996.28
2022-12-31T19:08:24.173Z,97992.66
2022-12-31T19:10:53.528Z,97989.97
2022-12-31T19:13:22.978Z,97989.09
2022-12-31T19:15:51.867Z,97995.28
2022-12-31T19:18:21.296Z,97995.34
2022-12-31T19:20:49.417Z,97994.47
2022-12-31T19:23:19.264Z,97995.34
2022-12-31T19:25:47.708Z,97988.16
2022-12-31T19:28:17.624Z,97990.84
2022-12-31T19:30:45.772Z,98000.72
2022-12-31T19:33:13.920Z,97999.84
2022-12-31T19:35:43.475Z,98000.72
2022-12-31T19:38:13.757Z,98000.72
2022-12-31T19:40:41.980Z,98006.06
2022-12-31T19:43:11.173Z,97999.69
2022-12-31T19:45:39.293Z,97987.25
2022-12-31T19:48:07.616Z,97988.97
2022-12-31T19:50:35.852Z,97991.56
2022-12-31T19:53:05.428Z,97979.88
2022-12-31T19:55:34.092Z,97978.13
2022-12-31T19:58:02.147Z,97970.97
2022-12-31T20:00:30.264Z,97970.09
2022-12-31T20:02:58.452Z,97979.00
2022-12-31T20:05:27.969Z,97967.41
2022-12-31T20:07:56.140Z,97964.72
2022-12-31T20:10:26.012Z,97981.59
2022-12-31T20:12:54.339Z,97980.75
2022-12-31T20:15:22.388Z,97982.41
2022-12-31T20:17:50.528Z,97990.44
2022-12-31T20:20:18.771Z,97976.19
2022-12-31T20:22:46.940Z,97980.59
2022-12-31T20:25:15.064Z,97983.28
2022-12-31T20:27:44.525Z,97989.50
2022-12-31T20:30:12.793Z,97971.56
2022-12-31T20:32:40.925Z,97982.31
2022-12-31T20:35:09.120Z,97977.72
2022-12-31T20:37:37.266Z,97967.88
2022-12-31T20:40:05.900Z,97977.72
2022-12-31T20:42:36.623Z,97966.16
2022-12-31T20:45:07.509Z,97972.34
2022-12-31T20:47:35.686Z,97962.50
2022-12-31T20:50:12.177Z,97957.13
2022-12-31T20:52:40.720Z,97968.75
2022-12-31T20:55:10.056Z,97974.13
2022-12-31T20:57:38.215Z,97975.81
2022-12-31T21:00:08.876Z,97968.66
2022-12-31T21:02:42.488Z,97975.81
2022-12-31T21:05:12.000Z,97970.41
2022-12-31T21:07:40.223Z,97959.66
2022-12-31T21:10:09.135Z,97958.72
2022-12-31T21:12:47.997Z,97959.59
2022-12-31T21:15:17.537Z,97959.59
2022-12-31T21:17:45.676Z,97962.25
2022-12-31T21:20:13.840Z,97968.56
2022-12-31T21:22:41.993Z,97964.06
2022-12-31T21:25:11.186Z,97970.31
2022-12-31T21:27:39.348Z,97959.59
2022-12-31T21:30:23.886Z,97956.91
2022-12-31T21:32:53.414Z,97970.31
2022-12-31T21:38:09.879Z,97965.72
2022-12-31T21:40:38.040Z,97973.69
2022-12-31T21:43:06.165Z,97969.22
2022-12-31T21:45:34.356Z,97981.66
2022-12-31T21:48:23.292Z,97969.13
2022-12-31T21:50:52.239Z,97968.19
2022-12-31T21:53:25.397Z,97961.84
2022-12-31T21:56:11.666Z,97968.97
2022-12-31T21:58:41.503Z,97966.28
2022-12-31T22:01:28.902Z,97959.94
2022-12-31T22:03:58.536Z,97963.59
2022-12-31T22:06:26.662Z,97958.22
2022-12-31T22:08:55.415Z,97954.66
2022-12-31T22:11:24.987Z,97951.03
2022-12-31T22:13:53.367Z,97957.34
2022-12-31T22:16:21.509Z,97948.44
2022-12-31T22:18:49.772Z,97952.88
2022-12-31T22:21:20.697Z,97945.66
2022-12-31T22:23:49.328Z,97934.06
2022-12-31T22:26:17.942Z,97935.88
2022-12-31T22:28:46.343Z,97932.31
2022-12-31T22:31:15.200Z,97920.72
2022-12-31T22:33:43.500Z,97916.22
2022-12-31T22:36:12.769Z,97918.91
2022-12-31T22:38:42.367Z,97910.84
2022-12-31T22:41:12.050Z,97917.19
2022-12-31T22:43:41.041Z,97926.06
2022-12-31T22:46:10.095Z,97930.50
2022-12-31T22:48:38.445Z,97930.50
2022-12-31T22:51:06.863Z,97923.41
2022-12-31T22:53:34.955Z,97918.91
2022-12-31T22:56:04.448Z,97926.06
2022-12-31T22:58:32.519Z,97913.63
2022-12-31T23:01:00.641Z,97910.94
2022-12-31T23:03:28.853Z,97897.75
2022-12-31T23:05:56.959Z,97908.69
2022-12-31T23:08:25.124Z,97916.72
2022-12-31T23:11:05.455Z,97923.13
2022-12-31T23:13:55.345Z,97925.91
2022-12-31T23:16:41.692Z,97933.06
2022-12-31T23:19:27.083Z,97923.22
2022-12-31T23:22:13.025Z,97928.50
2022-12-31T23:24:41.199Z,97914.19
2022-12-31T23:27:09.436Z,97921.31
2022-12-31T23:29:46.075Z,97919.47
2022-12-31T23:32:14.640Z,97914.09
2022-12-31T23:34:43.316Z,97918.63
2022-12-31T23:37:11.528Z,97916.78
2022-12-31T23:39:39.622Z,97906.94
2022-12-31T23:42:07.774Z,97923.91
2022-12-31T23:44:35.879Z,97911.44
2022-12-31T23:47:05.488Z,97909.63
2022-12-31T23:49:33.720Z,97914.97
2022-12-31T23:52:01.838Z,97906.94
2022-12-31T23:54:30.039Z,97905.13
2022-12-31T23:56:58.251Z,97899.84
2022-12-31T23:59:26.317Z,97900.69
